Terminal Aerodrome Forecast
Issued by NWS

Home | Current Version | Previous Version | Text Only | Print | Product List | Glossary On
Versions: 1 2 3 4 5 6 7 8 9 10 11 12 13 14 15 16 17 18 19 20 21
000
FTAK31 PAFA 301021 AAB
TAFABT
TAF AMD
PABT 301021Z 3010/3106 00000KT 6SM -SN OVC045
      TEMPO 3011/3014 2SM -SN BR BKN025
     FM301400 03002KT 2SM -SN OVC025
     FM310000 06002KT 6SM -SN BR OVC050=

USA.gov is the U.S. government's official web portal to all federal, state and local government web resources and services.